Stations météo

réclame
Mon MeteoGroup
Bielsa, Espagne (8103): Température de l'air & dewpoint: 18.04.2018 10:00:00 - 24.04.2018 10:00:00 (CEST)Bielsa, Espagne (8103): Vitesse du vent & gusts: 18.04.2018 10:00:00 - 24.04.2018 10:00:00 (CEST)Bielsa, Espagne (8103): Direction du vent: 18.04.2018 10:00:00 - 24.04.2018 10:00:00 (CEST)Bielsa, Espagne (8103): visibility: 18.04.2018 10:00:00 - 24.04.2018 10:00:00 (CEST)Bielsa, Espagne (8103): Ensoleillement: 18.04.2018 10:00:00 - 24.04.2018 10:00:00 (CEST)Bielsa, Espagne (8103): Quantités de précipitations: 18.04.2018 10:00:00 - 24.04.2018 10:00:00 (CEST)
Date & Time tt [°C] td [°C] ff [km/h] ff [knt] fx [km/h] fx [knt] dd vv [km] sd [min] rr [mm]
24.04.2018 10:00:00 - - - - - - - - - -
24.04.2018 09:00:00 7,4 7,0 3 2 13 7 NW 20 13 0,0
24.04.2018 08:00:00 5,1 4,7 3 2 11 6 WNW 10 0 -
24.04.2018 07:00:00 4,8 4,4 3 2 14 7 WNW 20 0 0,0
24.04.2018 06:00:00 4,9 4,3 2 1 13 7 WNW 20 0 0,0
24.04.2018 05:00:00 5,4 4,8 4 2 14 8 WNW 20 0 0,0
24.04.2018 04:00:00 6,0 5,4 6 3 16 8 NW 20 0 0,0
24.04.2018 03:00:00 5,9 5,2 4 2 15 8 WNW 20 0 0,0
24.04.2018 02:00:00 6,5 5,6 4 2 23 12 WNW 20 0 -
24.04.2018 01:00:00 7,6 6,4 6 4 16 8 NNW 20 0 0,0
24.04.2018 00:00:00 8,5 7,0 8 5 16 9 NW 20 0 0,0
23.04.2018 23:00:00 8,6 7,2 4 2 20 11 NNW 20 0 0,0
23.04.2018 22:00:00 9,4 8,0 6 4 16 9 NNW 20 0 0,0
23.04.2018 21:00:00 10,9 9,0 1 1 16 8 NNW 20 0 0,0
23.04.2018 20:00:00 12,6 10,2 5 3 14 8 NW 20 0 -
23.04.2018 19:00:00 13,5 11,4 2 1 5 3 W 20 15 0,0
23.04.2018 18:00:00 13,1 10,6 4 2 18 10 NNW 20 0 0,0
23.04.2018 17:00:00 12,5 10,6 5 3 11 6 NW 20 0 1,0
23.04.2018 16:00:00 12,0 10,6 4 2 19 10 NNW 9 0 3,2
23.04.2018 15:00:00 13,1 11,2 3 2 14 8 NW 3,6 0 1,6
23.04.2018 14:00:00 17,1 5,4 6 3 29 16 ESE 20 0 -
23.04.2018 13:00:00 17,8 7,0 8 4 25 13 SE 20 11 0,0
23.04.2018 12:00:00 17,7 6,6 4 2 8 4 NNW 20 0 0,0
23.04.2018 11:00:00 16,0 8,3 6 3 17 9 NW 20 13 0,0
23.04.2018 10:00:00 13,1 8,0 11 6 32 18 NNW 20 0 0,0
23.04.2018 09:00:00 11,0 7,7 6 3 24 13 NNW 20 0 0,2
23.04.2018 08:00:00 9,7 7,1 4 2 23 12 S 19 0 -
23.04.2018 07:00:00 8,4 5,5 1 1 18 10 N 20 0 0,0
23.04.2018 06:00:00 7,8 5,6 4 2 14 7 NW 20 0 0,0
23.04.2018 05:00:00 8,5 5,6 3 2 20 11 NNW 20 0 0,0
23.04.2018 04:00:00 8,5 6,0 4 2 17 9 WNW 20 0 0,0
23.04.2018 03:00:00 9,3 6,4 4 2 15 8 WNW 20 0 0,0
23.04.2018 02:00:00 10,1 6,4 3 2 13 7 NNW 20 0 -
23.04.2018 01:00:00 11,8 7,1 6 3 18 10 NW 20 0 0,0
23.04.2018 00:00:00 12,0 7,7 3 1 18 10 N 20 0 0,0
22.04.2018 23:00:00 12,5 7,8 2 1 14 8 WNW 20 0 0,0
22.04.2018 22:00:00 13,8 9,1 3 1 6 3 N 20 0 0,0
22.04.2018 21:00:00 16,5 8,7 2 1 29 16 SE 20 0 0,0
22.04.2018 20:00:00 18,2 8,2 10 6 27 15 ESE 20 0 -
22.04.2018 19:00:00 19,8 6,2 7 4 19 10 SE 20 19 0,0
22.04.2018 18:00:00 21,1 4,2 7 4 16 9 SSE 20 13 0,0
22.04.2018 17:00:00 23,4 4,4 7 4 32 17 SSE 20 52 0,0
22.04.2018 16:00:00 23,1 2,0 9 5 25 13 SE 20 41 0,0
22.04.2018 15:00:00 23,0 3,5 8 5 27 15 SE 20 51 0,0
22.04.2018 14:00:00 22,8 4,4 9 5 31 17 SE 20 60 -
22.04.2018 13:00:00 21,6 2,8 8 4 22 12 SE 20 60 0,0
22.04.2018 12:00:00 19,9 4,4 8 5 27 15 SE 20 60 0,0
22.04.2018 11:00:00 17,5 4,8 5 3 16 8 ESE 19 60 0,0
22.04.2018 10:00:00 13,1 4,8 2 1 11 6 SE 20 42 0,0
22.04.2018 09:00:00 11,1 4,3 9 5 18 10 NNW 20 11 0,0
22.04.2018 08:00:00 8,5 4,3 7 4 20 11 NNW 20 0 -
22.04.2018 07:00:00 6,6 4,4 4 2 15 8 WNW 20 0 0,0
22.04.2018 06:00:00 7,5 4,6 5 3 16 9 NW 20 0 0,0
22.04.2018 05:00:00 7,1 4,8 3 1 14 7 WNW 20 0 0,0
22.04.2018 04:00:00 7,6 4,7 4 2 12 7 WNW 20 0 0,0
22.04.2018 03:00:00 8,0 4,9 4 2 14 8 WNW 20 0 0,0
22.04.2018 02:00:00 9,0 5,0 5 3 14 8 NW 20 0 -
22.04.2018 01:00:00 9,1 5,3 3 2 18 10 W 20 0 0,0
22.04.2018 00:00:00 9,9 6,1 5 3 13 7 NW 20 0 0,0
21.04.2018 23:00:00 10,3 6,5 3 2 8 5 NW 20 0 0,0
21.04.2018 22:00:00 11,4 6,3 4 2 9 5 NW 20 0 0,0
21.04.2018 21:00:00 12,7 7,0 3 2 7 4 NW 20 0 0,0
21.04.2018 20:00:00 15,9 7,2 2 1 15 8 WNW 20 0 -
21.04.2018 19:00:00 18,0 5,6 5 3 14 7 SE 20 29 0,0
21.04.2018 18:00:00 20,8 6,4 5 3 21 11 SSE 20 53 0,0
21.04.2018 17:00:00 21,1 6,3 7 4 29 15 SE 20 43 0,0
21.04.2018 16:00:00 21,1 5,1 9 5 32 17 SE 5 33 0,0
21.04.2018 15:00:00 20,9 5,7 9 5 27 14 SE 20 30 0,0
21.04.2018 14:00:00 22,0 5,4 10 6 27 15 SE 20 60 -
21.04.2018 13:00:00 21,2 5,6 10 5 21 12 SE 20 60 0,0
21.04.2018 12:00:00 19,9 6,3 7 4 21 11 SE 20 60 0,0
21.04.2018 11:00:00 16,4 6,8 5 3 11 6 ESE 20 60 0,0
21.04.2018 10:00:00 11,9 6,2 6 3 9 5 NW 20 60 0,0
21.04.2018 09:00:00 7,0 6,1 2 1 9 5 ENE 20 11 0,0
21.04.2018 08:00:00 5,1 4,2 3 2 14 7 WNW 20 0 -
21.04.2018 07:00:00 4,9 3,9 1 1 10 6 WNW 17 0 0,0
21.04.2018 06:00:00 5,2 4,2 3 2 10 5 WNW 20 0 0,0
21.04.2018 05:00:00 5,8 4,4 4 2 16 9 WNW 20 0 0,0
21.04.2018 04:00:00 6,2 4,8 3 2 13 7 NW 20 0 0,0
21.04.2018 03:00:00 6,8 5,1 4 2 12 6 NW 20 0 0,0
21.04.2018 02:00:00 7,5 5,6 1 1 9 5 NNW 20 0 -
21.04.2018 01:00:00 8,4 6,2 2 1 8 5 N 20 0 0,0
21.04.2018 00:00:00 9,8 7,1 4 2 9 5 NNW 20 0 0,0
20.04.2018 23:00:00 12,1 7,4 4 2 15 8 NW 20 0 0,0
20.04.2018 22:00:00 13,6 8,7 4 2 13 7 W 20 0 0,0
20.04.2018 21:00:00 15,3 7,1 4 2 16 9 ESE 20 0 0,0
20.04.2018 20:00:00 16,5 7,7 4 2 16 9 S 20 0 -
20.04.2018 19:00:00 17,4 7,5 6 3 19 10 ESE 20 2 0,0
20.04.2018 18:00:00 18,6 7,4 7 4 25 13 SE 20 21 0,0
20.04.2018 17:00:00 20,0 5,3 7 4 26 14 ESE 20 19 0,0
20.04.2018 16:00:00 21,5 5,8 10 6 29 16 SE 12 41 0,0
20.04.2018 15:00:00 21,1 6,3 9 5 26 14 SE 20 40 0,0
20.04.2018 14:00:00 21,6 4,7 9 5 21 11 SE 20 44 -
20.04.2018 13:00:00 19,8 5,1 6 3 24 13 SE 20 53 0,0
20.04.2018 12:00:00 17,9 5,2 10 5 26 14 ESE 20 58 0,0
20.04.2018 11:00:00 15,8 7,3 5 3 11 6 ESE 20 60 0,0
20.04.2018 10:00:00 12,9 6,9 3 2 7 4 E 20 60 0,0
20.04.2018 09:00:00 8,0 6,3 5 3 13 7 NE 20 10 0,0
20.04.2018 08:00:00 5,9 5,0 3 1 13 7 NNW 20 0 -
20.04.2018 07:00:00 5,7 5,0 1 1 9 5 NW 20 0 0,0
20.04.2018 06:00:00 6,1 5,2 4 2 13 7 NNW 20 0 0,0
20.04.2018 05:00:00 6,9 5,7 2 1 9 5 NW 20 0 0,0
20.04.2018 04:00:00 7,8 5,9 0 0 6 3 N 20 0 0,0
20.04.2018 03:00:00 8,7 6,5 0 0 10 5 N 20 0 0,0
20.04.2018 02:00:00 8,4 6,5 5 3 11 6 NW 20 0 -
20.04.2018 01:00:00 8,1 6,6 3 2 8 4 NW 20 0 0,0
20.04.2018 00:00:00 9,5 6,8 0 0 8 5 N 20 0 0,0
19.04.2018 23:00:00 10,8 8,2 3 1 5 3 NW 20 0 0,0
19.04.2018 22:00:00 11,2 7,9 2 1 9 5 NW 20 0 0,0
19.04.2018 21:00:00 12,4 8,5 2 1 6 3 NW 20 0 0,0
19.04.2018 20:00:00 15,1 8,6 2 1 13 7 WNW 20 0 -
19.04.2018 19:00:00 17,1 7,7 4 2 18 10 SSE 20 10 0,0
19.04.2018 18:00:00 17,6 7,4 6 3 25 14 ESE 20 0 0,0
19.04.2018 17:00:00 18,6 7,4 9 5 22 12 SE 20 3 0,0
19.04.2018 16:00:00 19,1 6,9 8 4 18 10 SE 20 4 0,0
19.04.2018 15:00:00 19,9 6,6 7 4 20 11 SE 20 10 0,0
19.04.2018 14:00:00 19,2 6,3 7 4 23 13 SE 20 9 -
19.04.2018 13:00:00 19,1 5,6 8 4 20 11 ESE 20 33 0,0
19.04.2018 12:00:00 18,7 5,9 8 4 20 11 SE 20 54 0,0
19.04.2018 11:00:00 17,6 6,8 4 2 10 6 SE 20 60 0,0
19.04.2018 10:00:00 14,1 6,5 3 2 13 7 N 20 60 0,0
19.04.2018 09:00:00 8,2 6,8 2 1 13 7 NNE 20 9 0,0
19.04.2018 08:00:00 6,5 5,3 2 1 16 9 WNW 20 0 -
19.04.2018 07:00:00 6,7 5,0 3 1 12 7 WNW 20 0 0,0
19.04.2018 06:00:00 7,6 5,4 1 1 13 7 WNW 20 0 0,0
19.04.2018 05:00:00 8,9 5,8 2 1 14 7 N 20 0 0,0
19.04.2018 04:00:00 9,4 6,8 1 1 8 4 N 20 0 0,0
19.04.2018 03:00:00 10,5 6,6 4 2 13 7 WNW 20 0 0,0
19.04.2018 02:00:00 11,0 6,8 6 3 13 7 NNW 20 0 -
19.04.2018 01:00:00 10,7 7,4 4 2 7 4 N 20 0 0,0
19.04.2018 00:00:00 11,3 7,0 3 2 14 7 NNW 20 0 0,0
18.04.2018 23:00:00 11,6 7,7 4 2 9 5 NNW 20 0 0,0
18.04.2018 22:00:00 12,8 7,9 4 2 9 5 NNW 20 0 0,0
18.04.2018 21:00:00 14,7 7,3 4 2 9 5 WNW 20 0 0,0
18.04.2018 20:00:00 15,9 9,3 1 1 25 14 W 20 0 -
18.04.2018 19:00:00 18,5 6,4 7 4 17 9 SSE 20 11 0,0
18.04.2018 18:00:00 20,1 7,5 6 3 22 12 SSE 20 30 0,0
18.04.2018 17:00:00 20,3 7,3 5 3 23 12 SSE 20 13 0,0
18.04.2018 16:00:00 20,5 6,5 5 3 16 8 SE 20 6 0,0
18.04.2018 15:00:00 19,4 6,9 8 4 19 11 NW 20 3 0,0
18.04.2018 14:00:00 18,9 5,7 4 2 21 12 SSE 20 1 -
18.04.2018 13:00:00 18,5 6,0 6 3 20 11 ESE 20 26 0,0
18.04.2018 12:00:00 19,4 7,2 7 4 19 10 SE 20 36 0,0
18.04.2018 11:00:00 15,9 5,8 1 1 7 4 S 20 47 0,0
18.04.2018 10:00:00 12,8 6,6 2 1 10 5 NE 20 50 0,0

tt = Température de l'air
td = dewpoint
ff = Vitesse du vent
fx = gusts
dd = Direction du vent
vv = visibility
sd = Ensoleillement
rr = Quantités de précipitations

stations d'obs. à proximité